createdAt,value
2022-10-31T00:00:32.285Z,12.50
2022-10-31T00:02:58.971Z,12.05
2022-10-31T00:05:25.610Z,11.25
2022-10-31T00:07:55.118Z,12.23
2022-10-31T00:10:21.505Z,11.65
2022-10-31T00:12:47.911Z,12.68
2022-10-31T00:15:14.304Z,13.90
2022-10-31T00:17:40.695Z,14.32
2022-10-31T00:20:25.672Z,13.07
2022-10-31T00:22:52.058Z,13.23
2022-10-31T00:25:18.464Z,13.73
2022-10-31T00:27:44.854Z,12.95
2022-10-31T00:30:11.565Z,14.65
2022-10-31T00:32:37.962Z,13.70
2022-10-31T00:35:04.674Z,13.48
2022-10-31T00:37:31.074Z,12.73
2022-10-31T00:39:57.544Z,12.30
2022-10-31T00:42:23.986Z,14.05
2022-10-31T00:44:50.360Z,12.10
2022-10-31T00:47:16.772Z,15.85
2022-10-31T00:49:43.165Z,13.48
2022-10-31T00:52:10.179Z,15.65
2022-10-31T00:54:37.291Z,14.05
2022-10-31T00:57:03.944Z,12.93
2022-10-31T00:59:30.579Z,12.80
2022-10-31T01:01:57.174Z,13.75
2022-10-31T01:04:23.745Z,13.57
2022-10-31T01:06:50.134Z,12.73
2022-10-31T01:09:16.770Z,13.25
2022-10-31T01:11:43.234Z,13.52
2022-10-31T01:14:10.524Z,12.88
2022-10-31T01:16:36.913Z,12.57
2022-10-31T01:19:03.956Z,12.05
2022-10-31T01:21:30.587Z,12.57
2022-10-31T01:24:00.602Z,11.70
2022-10-31T01:26:30.058Z,11.88
2022-10-31T01:28:59.506Z,11.93
2022-10-31T01:31:30.257Z,12.35
2022-10-31T01:33:57.285Z,13.38
2022-10-31T01:36:29.940Z,12.48
2022-10-31T01:38:58.617Z,13.82
2022-10-31T01:41:27.921Z,11.40
2022-10-31T01:43:57.808Z,12.25
2022-10-31T01:46:54.772Z,12.40
2022-10-31T01:49:54.851Z,12.82
2022-10-31T01:52:27.467Z,11.43
2022-10-31T01:55:00.670Z,13.35
2022-10-31T01:57:28.130Z,12.77
2022-10-31T01:59:59.236Z,12.23
2022-10-31T02:02:28.515Z,12.68
2022-10-31T02:04:55.524Z,13.32
2022-10-31T02:07:27.629Z,12.93
2022-10-31T02:09:58.596Z,13.82
2022-10-31T02:12:26.062Z,13.52
2022-10-31T02:15:00.294Z,14.02
2022-10-31T02:17:27.274Z,12.60
2022-10-31T02:20:05.822Z,13.18
2022-10-31T02:22:49.440Z,13.27
2022-10-31T02:25:57.233Z,14.00
2022-10-31T02:28:34.133Z,14.30
2022-10-31T02:31:26.377Z,13.77
2022-10-31T02:33:58.475Z,13.25
2022-10-31T02:36:31.144Z,12.77
2022-10-31T02:39:11.574Z,12.80
2022-10-31T02:42:18.297Z,14.88
2022-10-31T02:45:06.306Z,12.90
2022-10-31T02:47:39.584Z,13.30
2022-10-31T02:50:11.649Z,13.15
2022-10-31T02:52:39.195Z,12.75
2022-10-31T02:55:23.990Z,13.57
2022-10-31T02:57:57.579Z,12.63
2022-10-31T03:00:24.301Z,12.48
2022-10-31T03:03:08.645Z,12.27
2022-10-31T03:05:53.784Z,13.23
2022-10-31T03:08:35.566Z,12.15
2022-10-31T03:11:06.012Z,12.80
2022-10-31T03:13:48.229Z,12.10
2022-10-31T03:16:38.082Z,12.32
2022-10-31T03:19:21.368Z,11.70
2022-10-31T03:21:53.677Z,11.98
2022-10-31T03:24:24.696Z,11.57
2022-10-31T03:26:55.665Z,12.35
2022-10-31T03:29:27.348Z,12.13
2022-10-31T03:31:58.297Z,12.20
2022-10-31T03:34:24.950Z,11.32
2022-10-31T03:36:54.530Z,11.00
2022-10-31T03:39:23.728Z,11.48
2022-10-31T03:41:57.201Z,12.07
2022-10-31T03:44:27.970Z,10.75
2022-10-31T03:47:00.562Z,11.75
2022-10-31T03:49:28.151Z,10.57
2022-10-31T03:52:10.467Z,11.63
2022-10-31T03:54:46.116Z,11.35
2022-10-31T03:57:37.000Z,10.90
2022-10-31T04:00:08.975Z,12.82
2022-10-31T04:03:10.852Z,11.20
2022-10-31T04:05:40.057Z,11.73
2022-10-31T04:08:12.900Z,13.35
2022-10-31T04:10:41.899Z,11.98
2022-10-31T04:13:13.224Z,11.05
2022-10-31T04:15:46.789Z,10.48
2022-10-31T04:18:13.506Z,10.70
2022-10-31T04:20:42.340Z,10.68
2022-10-31T04:23:23.393Z,10.18
2022-10-31T04:25:50.896Z,9.48
2022-10-31T04:30:50.198Z,8.73
2022-10-31T04:33:17.178Z,9.40
2022-10-31T04:35:45.891Z,9.27
2022-10-31T04:38:12.310Z,11.15
2022-10-31T04:40:39.733Z,11.27
2022-10-31T04:43:24.828Z,11.10
2022-10-31T04:45:51.472Z,11.13
2022-10-31T04:48:18.996Z,12.77
2022-10-31T04:50:45.460Z,13.60
2022-10-31T04:53:13.361Z,14.13
2022-10-31T04:56:01.502Z,14.95
2022-10-31T04:58:35.850Z,14.63
2022-10-31T05:01:04.554Z,15.02
2022-10-31T05:03:32.853Z,17.08
2022-10-31T05:06:24.516Z,12.75
2022-10-31T05:08:51.520Z,13.95
2022-10-31T05:11:17.988Z,14.10
2022-10-31T05:13:44.651Z,14.63
2022-10-31T05:16:11.048Z,14.55
2022-10-31T05:19:09.264Z,14.70
2022-10-31T05:21:54.168Z,12.65
2022-10-31T05:24:22.632Z,11.90
2022-10-31T05:26:49.956Z,9.55
2022-10-31T05:29:16.542Z,10.13
2022-10-31T05:31:43.955Z,13.20
2022-10-31T05:34:21.055Z,11.55
2022-10-31T05:37:10.118Z,14.05
2022-10-31T05:39:37.155Z,14.93
2022-10-31T05:42:12.073Z,13.05
2022-10-31T05:44:38.500Z,15.27
2022-10-31T05:47:14.094Z,11.10
2022-10-31T05:49:55.446Z,15.38
2022-10-31T05:52:40.745Z,15.10
2022-10-31T05:55:17.108Z,12.27
2022-10-31T05:57:58.312Z,12.30
2022-10-31T06:00:26.670Z,11.95
2022-10-31T06:03:00.363Z,13.57
2022-10-31T06:05:39.089Z,13.98
2022-10-31T06:08:05.952Z,14.27
2022-10-31T06:10:32.396Z,13.15
2022-10-31T06:12:58.924Z,12.57
2022-10-31T06:15:38.837Z,12.70
2022-10-31T06:18:07.487Z,13.85
2022-10-31T06:20:37.276Z,13.00
2022-10-31T06:23:05.420Z,12.38
2022-10-31T06:25:33.995Z,12.15
2022-10-31T06:28:00.809Z,13.02
2022-10-31T06:30:36.233Z,10.95
2022-10-31T06:33:04.815Z,12.88
2022-10-31T06:35:32.571Z,12.63
2022-10-31T06:38:00.659Z,12.23
2022-10-31T06:40:33.788Z,11.70
2022-10-31T06:43:17.519Z,12.07
2022-10-31T06:45:47.528Z,13.23
2022-10-31T06:48:26.507Z,17.13
2022-10-31T06:51:16.469Z,17.85
2022-10-31T06:53:42.877Z,18.90
2022-10-31T06:56:11.379Z,18.65
2022-10-31T06:58:43.098Z,18.50
2022-10-31T07:01:11.551Z,19.52
2022-10-31T07:03:39.123Z,20.02
2022-10-31T07:06:06.314Z,20.00
2022-10-31T07:08:33.361Z,21.25
2022-10-31T07:10:59.789Z,20.58
2022-10-31T07:13:28.454Z,21.23
2022-10-31T07:16:07.529Z,21.70
2022-10-31T07:18:35.767Z,21.05
2022-10-31T07:21:02.495Z,22.40
2022-10-31T07:23:28.956Z,21.90
2022-10-31T07:26:13.870Z,22.58
2022-10-31T07:28:46.871Z,22.15
2022-10-31T07:31:13.757Z,21.67
2022-10-31T07:33:40.512Z,23.67
2022-10-31T07:36:38.809Z,21.92
2022-10-31T07:39:05.217Z,24.02
2022-10-31T07:41:34.503Z,21.73
2022-10-31T07:44:00.932Z,21.13
2022-10-31T07:46:30.025Z,22.70
2022-10-31T07:49:15.115Z,22.10
2022-10-31T07:52:01.492Z,22.73
2022-10-31T07:54:27.856Z,21.38
2022-10-31T07:56:54.241Z,22.88
2022-10-31T07:59:20.731Z,21.63
2022-10-31T08:01:48.368Z,21.05
2022-10-31T08:04:46.625Z,20.13
2022-10-31T08:10:17.090Z,22.30
2022-10-31T08:12:43.494Z,23.05
2022-10-31T08:15:10.487Z,22.20
2022-10-31T08:17:37.869Z,21.45
2022-10-31T08:20:07.534Z,22.10
2022-10-31T08:22:42.725Z,20.95
2022-10-31T08:25:10.170Z,21.58
2022-10-31T08:27:37.261Z,21.77
2022-10-31T08:30:04.054Z,23.48
2022-10-31T08:33:13.981Z,20.92
2022-10-31T08:35:59.693Z,26.05
2022-10-31T08:38:48.096Z,24.23
2022-10-31T08:41:15.020Z,24.15
2022-10-31T08:43:41.728Z,25.58
2022-10-31T08:46:08.142Z,22.42
2022-10-31T08:48:34.910Z,23.23
2022-10-31T08:51:03.489Z,24.50
2022-10-31T08:53:30.616Z,24.38
2022-10-31T08:56:18.997Z,24.73
2022-10-31T08:58:45.641Z,26.42
2022-10-31T09:01:12.518Z,26.15
2022-10-31T09:03:39.024Z,27.77
2022-10-31T09:06:09.634Z,28.02
2022-10-31T09:08:37.354Z,26.88
2022-10-31T09:11:04.894Z,27.85
2022-10-31T09:13:59.999Z,27.23
2022-10-31T09:16:44.777Z,28.40
2022-10-31T09:19:17.934Z,27.70
2022-10-31T09:21:46.386Z,26.42
2022-10-31T09:24:12.762Z,28.33
2022-10-31T09:26:41.710Z,28.58
2022-10-31T09:29:15.162Z,26.38
2022-10-31T09:31:45.075Z,29.55
2022-10-31T09:34:26.639Z,27.02
2022-10-31T09:37:05.151Z,29.77
2022-10-31T09:39:34.452Z,27.73
2022-10-31T09:42:32.381Z,28.20
2022-10-31T09:45:24.236Z,29.52
2022-10-31T09:48:05.756Z,28.33
2022-10-31T09:50:43.885Z,28.25
2022-10-31T09:53:40.604Z,30.13
2022-10-31T09:56:18.676Z,27.15
2022-10-31T09:58:48.525Z,30.52
2022-10-31T10:01:31.358Z,30.00
2022-10-31T10:04:20.859Z,29.55
2022-10-31T10:07:12.715Z,31.13
2022-10-31T10:10:02.836Z,30.60
2022-10-31T10:13:13.779Z,30.45
2022-10-31T10:16:07.701Z,29.45
2022-10-31T10:18:47.082Z,29.08
2022-10-31T10:21:45.576Z,29.95
2022-10-31T10:24:11.901Z,30.60
2022-10-31T10:26:43.852Z,30.50
2022-10-31T10:29:34.514Z,30.75
2022-10-31T10:32:07.169Z,31.17
2022-10-31T10:34:42.678Z,31.35
2022-10-31T10:37:33.811Z,30.25
2022-10-31T10:43:19.635Z,29.67
2022-10-31T10:46:11.815Z,32.15
2022-10-31T10:48:45.454Z,31.52
2022-10-31T10:54:43.829Z,31.02
2022-10-31T10:57:22.918Z,34.70
2022-10-31T10:59:50.155Z,35.28
2022-10-31T11:02:25.650Z,33.00
2022-10-31T11:04:54.983Z,36.78
2022-10-31T11:07:21.993Z,34.40
2022-10-31T11:09:48.592Z,36.50
2022-10-31T11:12:32.168Z,39.25
2022-10-31T11:15:01.303Z,37.08
2022-10-31T11:17:32.142Z,38.47
2022-10-31T11:20:16.278Z,36.97
2022-10-31T11:22:48.005Z,36.97
2022-10-31T11:25:20.364Z,37.58
2022-10-31T11:27:47.452Z,37.00
2022-10-31T11:30:15.246Z,38.85
2022-10-31T11:32:50.090Z,38.83
2022-10-31T11:35:19.487Z,39.92
2022-10-31T11:37:49.090Z,41.38
2022-10-31T11:40:18.948Z,39.33
2022-10-31T11:42:46.353Z,39.92
2022-10-31T11:45:28.477Z,40.75
2022-10-31T11:47:59.897Z,41.03
2022-10-31T11:50:33.900Z,43.30
2022-10-31T11:53:01.200Z,43.20
2022-10-31T11:55:34.973Z,42.72
2022-10-31T11:58:02.031Z,43.97
2022-10-31T12:00:31.197Z,45.50
2022-10-31T12:03:27.512Z,44.55
2022-10-31T12:06:02.204Z,44.50
2022-10-31T12:08:34.548Z,45.75
2022-10-31T12:11:13.038Z,46.30
2022-10-31T12:14:03.864Z,44.85
2022-10-31T12:16:51.341Z,47.28
2022-10-31T12:19:37.220Z,47.72
2022-10-31T12:22:46.126Z,46.67
2022-10-31T12:25:18.472Z,46.97
2022-10-31T12:28:12.156Z,45.28
2022-10-31T12:31:03.284Z,45.47
2022-10-31T12:36:40.829Z,47.05
2022-10-31T12:39:19.404Z,48.55
2022-10-31T12:41:47.367Z,49.50
2022-10-31T12:44:33.887Z,49.47
2022-10-31T12:47:26.772Z,45.38
2022-10-31T12:50:23.812Z,48.28
2022-10-31T12:53:02.517Z,51.42
2022-10-31T12:55:44.056Z,51.55
2022-10-31T12:58:22.677Z,47.42
2022-10-31T13:00:58.043Z,46.15
2022-10-31T13:03:36.578Z,49.15
2022-10-31T13:06:08.950Z,47.17
2022-10-31T13:08:42.154Z,45.60
2022-10-31T13:11:17.504Z,48.50
2022-10-31T13:13:52.989Z,49.20
2022-10-31T13:16:35.506Z,48.08
2022-10-31T13:19:18.359Z,47.58
2022-10-31T13:22:03.932Z,46.88
2022-10-31T13:24:42.920Z,45.53
2022-10-31T13:27:30.488Z,44.08
2022-10-31T13:30:17.097Z,42.60
2022-10-31T13:33:00.528Z,46.05
2022-10-31T13:35:27.043Z,43.55
2022-10-31T13:38:17.584Z,41.78
2022-10-31T13:40:53.827Z,44.08
2022-10-31T13:43:31.285Z,45.25
2022-10-31T13:45:57.690Z,47.35
2022-10-31T13:48:40.132Z,47.20
2022-10-31T13:51:11.505Z,51.03
2022-10-31T13:53:46.305Z,49.70
2022-10-31T13:56:25.606Z,48.80
2022-10-31T13:59:01.020Z,46.65
2022-10-31T14:01:29.980Z,48.20
2022-10-31T14:04:12.718Z,46.83
2022-10-31T14:06:43.222Z,48.25
2022-10-31T14:09:24.602Z,47.85
2022-10-31T14:11:51.921Z,49.97
2022-10-31T14:14:20.257Z,51.58
2022-10-31T14:16:55.634Z,51.33
2022-10-31T14:19:23.018Z,52.80
2022-10-31T14:21:51.253Z,51.00
2022-10-31T14:24:23.478Z,51.42
2022-10-31T14:27:04.545Z,49.50
2022-10-31T14:32:13.726Z,46.13
2022-10-31T14:34:51.496Z,45.95
2022-10-31T14:37:56.262Z,45.42
2022-10-31T14:40:32.685Z,48.33
2022-10-31T14:43:25.858Z,48.13
2022-10-31T14:46:08.005Z,47.45
2022-10-31T14:49:00.443Z,46.63
2022-10-31T14:51:40.539Z,51.60
2022-10-31T14:54:14.152Z,52.33
2022-10-31T14:56:49.244Z,50.88
2022-10-31T14:59:19.562Z,52.08
2022-10-31T15:01:57.706Z,51.17
2022-10-31T15:04:27.001Z,48.83
2022-10-31T15:07:05.212Z,53.13
2022-10-31T15:09:34.351Z,50.05
2022-10-31T15:12:01.930Z,48.83
2022-10-31T15:14:31.282Z,47.42
2022-10-31T15:16:59.138Z,48.40
2022-10-31T15:19:29.103Z,47.13
2022-10-31T15:21:57.889Z,43.78
2022-10-31T15:24:31.283Z,45.65
2022-10-31T15:27:03.809Z,43.38
2022-10-31T15:29:32.173Z,43.05
2022-10-31T15:32:02.566Z,45.08
2022-10-31T15:34:38.985Z,44.40
2022-10-31T15:37:10.149Z,46.03
2022-10-31T15:39:36.558Z,48.80
2022-10-31T15:42:03.016Z,49.25
2022-10-31T15:44:35.973Z,48.83
2022-10-31T15:47:06.203Z,48.40
2022-10-31T15:49:42.973Z,49.40
2022-10-31T15:52:18.194Z,48.67
2022-10-31T15:54:48.702Z,47.42
2022-10-31T15:57:15.467Z,52.05
2022-10-31T15:59:49.653Z,52.58
2022-10-31T16:02:21.859Z,53.80
2022-10-31T16:04:51.420Z,50.78
2022-10-31T16:07:23.143Z,53.53
2022-10-31T16:09:54.394Z,53.00
2022-10-31T16:12:22.899Z,53.08
2022-10-31T16:14:51.415Z,51.80
2022-10-31T16:17:22.105Z,47.78
2022-10-31T16:20:06.613Z,47.67
2022-10-31T16:22:37.421Z,48.40
2022-10-31T16:25:27.227Z,48.97
2022-10-31T16:27:56.339Z,47.35
2022-10-31T16:30:26.289Z,48.83
2022-10-31T16:33:02.533Z,48.35
2022-10-31T16:35:39.623Z,51.22
2022-10-31T16:38:06.402Z,50.25
2022-10-31T16:40:33.849Z,52.83
2022-10-31T16:43:01.378Z,52.72
2022-10-31T16:45:32.119Z,55.05
2022-10-31T16:48:07.471Z,53.70
2022-10-31T16:50:34.059Z,50.85
2022-10-31T16:53:13.346Z,52.95
2022-10-31T16:55:47.149Z,53.75
2022-10-31T16:58:18.049Z,51.90
2022-10-31T17:03:11.514Z,53.10
2022-10-31T17:05:39.462Z,53.85
2022-10-31T17:08:06.058Z,51.50
2022-10-31T17:10:32.801Z,54.70
2022-10-31T17:13:00.638Z,51.25
2022-10-31T17:15:28.904Z,53.40
2022-10-31T17:17:55.622Z,51.65
2022-10-31T17:20:27.911Z,49.60
2022-10-31T17:22:55.077Z,50.40
2022-10-31T17:25:23.962Z,48.03
2022-10-31T17:27:51.381Z,49.22
2022-10-31T17:30:19.422Z,49.28
2022-10-31T17:32:46.993Z,51.55
2022-10-31T17:35:14.909Z,50.20
2022-10-31T17:37:42.896Z,50.90
2022-10-31T17:40:10.806Z,49.65
2022-10-31T17:42:38.501Z,49.70
2022-10-31T17:45:06.695Z,49.83
2022-10-31T17:47:33.714Z,48.42
2022-10-31T17:50:00.310Z,51.60
2022-10-31T17:52:26.845Z,53.00
2022-10-31T17:54:53.256Z,51.35
2022-10-31T17:57:19.682Z,51.92
2022-10-31T17:59:46.074Z,54.15
2022-10-31T18:02:12.666Z,54.90
2022-10-31T18:04:40.911Z,53.92
2022-10-31T18:07:07.924Z,51.90
2022-10-31T18:09:34.723Z,50.80
2022-10-31T18:12:01.105Z,52.88
2022-10-31T18:14:29.363Z,53.08
2022-10-31T18:16:55.757Z,54.30
2022-10-31T18:19:22.189Z,54.75
2022-10-31T18:21:48.577Z,55.80
2022-10-31T18:24:15.001Z,57.05
2022-10-31T18:26:41.376Z,53.83
2022-10-31T18:29:07.837Z,53.83
2022-10-31T18:31:34.218Z,54.97
2022-10-31T18:34:00.642Z,53.35
2022-10-31T18:36:27.225Z,54.50
2022-10-31T18:38:53.661Z,54.95
2022-10-31T18:41:20.379Z,53.28
2022-10-31T18:43:46.978Z,54.92
2022-10-31T18:46:15.375Z,55.33
2022-10-31T18:48:43.208Z,55.28
2022-10-31T18:51:11.336Z,55.10
2022-10-31T18:53:37.976Z,56.05
2022-10-31T18:56:08.994Z,53.22
2022-10-31T19:01:12.900Z,55.08
2022-10-31T19:03:40.493Z,55.65
2022-10-31T19:06:08.157Z,57.80
2022-10-31T19:08:34.671Z,58.78
2022-10-31T19:11:07.008Z,64.32
2022-10-31T19:13:34.518Z,62.05
2022-10-31T19:16:12.082Z,57.42
2022-10-31T19:18:39.627Z,59.75
2022-10-31T19:21:11.832Z,59.75
2022-10-31T19:23:38.830Z,57.28
2022-10-31T19:26:05.517Z,57.85
2022-10-31T19:28:33.544Z,57.88
2022-10-31T19:31:00.163Z,59.60
2022-10-31T19:33:33.395Z,59.20
2022-10-31T19:36:11.367Z,59.92
2022-10-31T19:38:42.932Z,62.85
2022-10-31T19:41:16.018Z,64.32
2022-10-31T19:43:43.027Z,61.80
2022-10-31T19:46:22.475Z,62.60
2022-10-31T19:48:54.665Z,65.07
2022-10-31T19:51:21.881Z,66.97
2022-10-31T19:53:49.729Z,65.93
2022-10-31T19:56:21.448Z,68.25
2022-10-31T19:58:48.527Z,65.55
2022-10-31T20:01:20.385Z,66.70
2022-10-31T20:03:47.427Z,68.43
2022-10-31T20:06:32.175Z,66.53
2022-10-31T20:09:00.660Z,66.75
2022-10-31T20:11:28.531Z,65.13
2022-10-31T20:13:56.370Z,63.33
2022-10-31T20:16:23.699Z,63.85
2022-10-31T20:18:50.136Z,64.43
2022-10-31T20:21:19.921Z,67.85
2022-10-31T20:23:47.525Z,63.45
2022-10-31T20:26:17.102Z,62.63
2022-10-31T20:28:43.869Z,64.82
2022-10-31T20:31:13.436Z,63.35
2022-10-31T20:33:39.880Z,59.80
2022-10-31T20:36:07.990Z,63.20
2022-10-31T20:38:37.002Z,61.67
2022-10-31T20:41:05.122Z,61.47
2022-10-31T20:43:33.312Z,59.70
2022-10-31T20:46:05.329Z,60.17
2022-10-31T20:48:32.243Z,60.28
2022-10-31T20:51:07.150Z,58.72
2022-10-31T20:53:34.197Z,57.72
2022-10-31T20:56:07.240Z,54.50
2022-10-31T20:58:35.036Z,57.13
2022-10-31T21:01:01.752Z,55.60
2022-10-31T21:03:28.207Z,51.85
2022-10-31T21:06:00.075Z,53.67
2022-10-31T21:08:28.455Z,54.40
2022-10-31T21:10:55.365Z,55.10
2022-10-31T21:13:22.110Z,55.60
2022-10-31T21:15:48.793Z,52.78
2022-10-31T21:18:15.207Z,53.97
2022-10-31T21:20:43.922Z,55.30
2022-10-31T21:23:11.666Z,53.38
2022-10-31T21:25:42.308Z,55.80
2022-10-31T21:28:10.610Z,54.15
2022-10-31T21:30:42.083Z,56.03
2022-10-31T21:33:08.649Z,56.67
2022-10-31T21:35:35.397Z,58.63
2022-10-31T21:38:02.306Z,57.78
2022-10-31T21:40:29.157Z,57.42
2022-10-31T21:42:56.489Z,58.47
2022-10-31T21:45:23.210Z,60.05
2022-10-31T21:47:50.282Z,60.55
2022-10-31T21:50:17.582Z,62.65
2022-10-31T21:52:44.174Z,61.13
2022-10-31T21:55:10.596Z,61.63
2022-10-31T21:57:37.110Z,58.75
2022-10-31T22:00:08.925Z,60.28
2022-10-31T22:02:36.472Z,57.97
2022-10-31T22:05:03.824Z,56.55
2022-10-31T22:07:31.973Z,54.97
2022-10-31T22:09:58.361Z,54.22
2022-10-31T22:12:25.243Z,51.60
2022-10-31T22:14:51.809Z,51.60
2022-10-31T22:17:18.204Z,48.35
2022-10-31T22:19:44.591Z,50.80
2022-10-31T22:22:12.165Z,51.80
2022-10-31T22:24:38.598Z,48.33
2022-10-31T22:27:05.093Z,44.53
2022-10-31T22:29:31.479Z,43.28
2022-10-31T22:31:59.725Z,43.50
2022-10-31T22:34:28.113Z,41.88
2022-10-31T22:36:55.207Z,45.45
2022-10-31T22:39:21.609Z,46.50
2022-10-31T22:41:48.020Z,46.35
2022-10-31T22:44:14.414Z,46.20
2022-10-31T22:46:40.847Z,46.92
2022-10-31T22:49:11.861Z,52.10
2022-10-31T22:54:09.381Z,55.03
2022-10-31T22:56:35.944Z,58.88
2022-10-31T22:59:02.965Z,59.83
2022-10-31T23:01:32.244Z,61.97
2022-10-31T23:03:59.045Z,61.50
2022-10-31T23:06:28.095Z,62.03
2022-10-31T23:08:55.299Z,64.65
2022-10-31T23:11:25.184Z,62.75
2022-10-31T23:14:09.652Z,63.17
2022-10-31T23:16:37.839Z,64.05
2022-10-31T23:19:07.875Z,65.38
2022-10-31T23:21:54.866Z,62.67
2022-10-31T23:24:31.757Z,64.15
2022-10-31T23:27:06.117Z,62.25
2022-10-31T23:29:44.107Z,63.53
2022-10-31T23:32:20.999Z,62.55
2022-10-31T23:34:49.203Z,66.00
2022-10-31T23:37:16.834Z,67.30
2022-10-31T23:39:43.242Z,63.65
2022-10-31T23:42:10.106Z,66.35
2022-10-31T23:44:36.593Z,65.47
2022-10-31T23:47:03.421Z,60.90
2022-10-31T23:49:29.858Z,60.03
2022-10-31T23:51:59.417Z,61.25
2022-10-31T23:54:26.503Z,57.67
2022-10-31T23:56:54.078Z,62.17
2022-10-31T23:59:22.710Z,64.35
